createdAt,value
2023-01-19T00:00:56.591Z,76.10
2023-01-19T00:03:23.514Z,76.76
2023-01-19T00:05:50.366Z,77.15
2023-01-19T00:08:17.643Z,76.92
2023-01-19T00:10:51.288Z,76.60
2023-01-19T00:13:18.591Z,75.84
2023-01-19T00:15:45.433Z,75.09
2023-01-19T00:18:14.471Z,75.14
2023-01-19T00:20:41.531Z,74.42
2023-01-19T00:23:09.593Z,72.71
2023-01-19T00:25:42.555Z,71.56
2023-01-19T00:28:14.194Z,72.46
2023-01-19T00:30:42.183Z,71.31
2023-01-19T00:33:10.265Z,70.02
2023-01-19T00:35:37.149Z,69.77
2023-01-19T00:38:04.026Z,69.30
2023-01-19T00:40:30.878Z,69.23
2023-01-19T00:42:58.225Z,70.29
2023-01-19T00:45:25.457Z,68.87
2023-01-19T00:47:57.237Z,67.63
2023-01-19T00:50:25.921Z,67.10
2023-01-19T00:52:54.198Z,66.13
2023-01-19T00:55:21.732Z,66.20
2023-01-19T00:57:49.033Z,66.97
2023-01-19T01:00:19.846Z,66.50
2023-01-19T01:02:48.158Z,66.11
2023-01-19T01:05:15.430Z,66.60
2023-01-19T01:07:44.519Z,66.10
2023-01-19T01:10:14.790Z,66.67
2023-01-19T01:12:42.159Z,65.81
2023-01-19T01:15:23.414Z,66.78
2023-01-19T01:17:53.056Z,64.95
2023-01-19T01:20:27.114Z,65.80
2023-01-19T01:22:54.389Z,66.35
2023-01-19T01:25:23.621Z,69.28
2023-01-19T01:27:50.706Z,69.12
2023-01-19T01:30:17.683Z,69.03
2023-01-19T01:32:44.652Z,69.47
2023-01-19T01:35:12.591Z,68.59
2023-01-19T01:37:40.620Z,67.13
2023-01-19T01:40:08.031Z,67.57
2023-01-19T01:42:34.966Z,68.67
2023-01-19T01:45:22.229Z,67.98
2023-01-19T01:47:50.570Z,69.61
2023-01-19T01:50:26.780Z,70.51
2023-01-19T01:53:06.480Z,70.11
2023-01-19T01:55:38.372Z,67.94
2023-01-19T01:58:07.541Z,64.23
2023-01-19T02:00:54.419Z,65.14
2023-01-19T02:03:24.760Z,64.43
2023-01-19T02:05:53.700Z,65.40
2023-01-19T02:08:52.983Z,65.94
2023-01-19T02:11:38.747Z,66.94
2023-01-19T02:14:06.375Z,69.64
2023-01-19T02:16:35.045Z,69.70
2023-01-19T02:19:01.947Z,66.98
2023-01-19T02:21:43.070Z,67.26
2023-01-19T02:24:10.973Z,69.47
2023-01-19T02:26:44.397Z,71.16
2023-01-19T02:29:17.993Z,70.95
2023-01-19T02:31:48.194Z,69.10
2023-01-19T02:34:17.952Z,70.21
2023-01-19T02:36:52.787Z,71.60
2023-01-19T02:39:27.093Z,70.78
2023-01-19T02:41:59.311Z,73.15
2023-01-19T02:44:27.794Z,68.63
2023-01-19T02:46:57.341Z,71.84
2023-01-19T02:49:27.609Z,71.66
2023-01-19T02:51:54.737Z,72.89
2023-01-19T02:54:33.817Z,72.47
2023-01-19T02:57:32.304Z,73.70
2023-01-19T03:00:01.876Z,73.61
2023-01-19T03:02:44.204Z,72.69
2023-01-19T03:05:17.428Z,73.35
2023-01-19T03:08:25.152Z,73.01
2023-01-19T03:11:00.789Z,72.79
2023-01-19T03:13:52.113Z,72.97
2023-01-19T03:16:28.020Z,72.67
2023-01-19T03:18:58.360Z,72.44
2023-01-19T03:21:27.752Z,73.76
2023-01-19T03:24:00.464Z,72.18
2023-01-19T03:26:30.893Z,72.69
2023-01-19T03:29:02.682Z,74.13
2023-01-19T03:31:33.275Z,73.59
2023-01-19T03:34:06.803Z,74.98
2023-01-19T03:36:49.196Z,76.09
2023-01-19T03:39:23.018Z,74.59
2023-01-19T03:41:59.925Z,75.84
2023-01-19T03:44:29.183Z,76.39
2023-01-19T03:46:58.500Z,75.16
2023-01-19T03:49:25.957Z,77.00
2023-01-19T03:51:55.832Z,77.16
2023-01-19T03:54:23.086Z,76.88
2023-01-19T03:56:49.792Z,76.32
2023-01-19T03:59:17.619Z,76.56
2023-01-19T04:01:44.625Z,75.81
2023-01-19T04:04:11.683Z,75.79
2023-01-19T04:06:38.724Z,76.13
2023-01-19T04:09:06.054Z,76.24
2023-01-19T04:11:32.777Z,76.14
2023-01-19T04:13:59.714Z,76.55
2023-01-19T04:16:26.500Z,76.74
2023-01-19T04:18:53.543Z,76.42
2023-01-19T04:21:22.829Z,75.01
2023-01-19T04:23:50.378Z,75.45
2023-01-19T04:26:17.103Z,75.82
2023-01-19T04:28:43.786Z,77.70
2023-01-19T04:31:10.856Z,77.72
2023-01-19T04:33:37.733Z,77.21
2023-01-19T04:36:04.835Z,78.46
2023-01-19T04:38:31.830Z,77.33
2023-01-19T04:40:58.584Z,78.85
2023-01-19T04:43:25.413Z,79.24
2023-01-19T04:45:52.316Z,79.14
2023-01-19T04:48:19.689Z,78.98
2023-01-19T04:50:47.338Z,79.43
2023-01-19T04:53:14.599Z,79.43
2023-01-19T04:55:41.337Z,77.80
2023-01-19T04:58:08.416Z,78.28
2023-01-19T05:00:35.623Z,78.38
2023-01-19T05:03:02.807Z,79.08
2023-01-19T05:05:29.947Z,78.03
2023-01-19T05:07:56.841Z,77.51
2023-01-19T05:10:23.978Z,77.14
2023-01-19T05:12:51.320Z,75.94
2023-01-19T05:15:18.100Z,75.23
2023-01-19T05:17:45.218Z,73.87
2023-01-19T05:20:15.685Z,72.34
2023-01-19T05:22:43.414Z,72.29
2023-01-19T05:25:10.227Z,72.49
2023-01-19T05:27:38.745Z,73.36
2023-01-19T05:30:06.537Z,74.11
2023-01-19T05:32:33.370Z,74.19
2023-01-19T05:35:00.200Z,73.03
2023-01-19T05:37:27.050Z,74.19
2023-01-19T05:39:54.219Z,74.86
2023-01-19T05:42:21.273Z,75.33
2023-01-19T05:44:48.037Z,76.05
2023-01-19T05:47:15.029Z,77.38
2023-01-19T05:49:41.831Z,78.56
2023-01-19T05:52:08.667Z,79.58
2023-01-19T05:54:35.617Z,80.79
2023-01-19T05:57:03.131Z,81.27
2023-01-19T05:59:29.913Z,81.63
2023-01-19T06:01:57.243Z,81.70
2023-01-19T06:04:24.152Z,83.17
2023-01-19T06:06:51.607Z,82.90
2023-01-19T06:09:18.652Z,82.33
2023-01-19T06:11:46.420Z,81.47
2023-01-19T06:14:13.704Z,80.03
2023-01-19T06:16:40.904Z,79.97
2023-01-19T06:19:07.690Z,79.42
2023-01-19T06:21:34.540Z,78.87
2023-01-19T06:24:01.397Z,79.50
2023-01-19T06:26:28.256Z,79.38
2023-01-19T06:28:55.395Z,78.67
2023-01-19T06:31:22.550Z,79.46
2023-01-19T06:33:49.948Z,79.80
2023-01-19T06:36:16.727Z,79.15
2023-01-19T06:38:44.003Z,79.39
2023-01-19T06:41:12.463Z,79.15
2023-01-19T06:43:39.296Z,78.14
2023-01-19T06:46:06.240Z,79.02
2023-01-19T06:48:33.083Z,78.72
2023-01-19T06:51:00.038Z,77.69
2023-01-19T06:53:28.442Z,78.11
2023-01-19T06:55:59.763Z,78.69
2023-01-19T06:58:28.375Z,78.27
2023-01-19T07:00:56.335Z,78.29
2023-01-19T07:03:23.827Z,79.03
2023-01-19T07:05:53.753Z,79.35
2023-01-19T07:08:20.887Z,78.35
2023-01-19T07:11:25.674Z,77.43
2023-01-19T07:13:35.923Z,76.94
2023-01-19T07:16:11.852Z,76.83
2023-01-19T07:18:39.894Z,74.89
2023-01-19T07:21:07.318Z,75.24
2023-01-19T07:23:35.089Z,73.02
2023-01-19T07:26:02.010Z,72.89
2023-01-19T07:28:29.616Z,74.00
2023-01-19T07:30:57.068Z,74.13
2023-01-19T07:33:25.077Z,73.82
2023-01-19T07:35:52.628Z,75.62
2023-01-19T07:38:20.395Z,75.72
2023-01-19T07:40:47.307Z,75.61
2023-01-19T07:43:15.028Z,74.24
2023-01-19T07:45:43.190Z,73.33
2023-01-19T07:48:10.027Z,74.57
2023-01-19T07:50:36.826Z,72.06
2023-01-19T07:53:08.603Z,72.21
2023-01-19T07:55:35.943Z,73.10
2023-01-19T07:58:06.643Z,73.75
2023-01-19T08:00:35.367Z,72.58
2023-01-19T08:03:03.750Z,71.13
2023-01-19T08:05:31.667Z,72.02
2023-01-19T08:07:59.021Z,73.82
2023-01-19T08:10:27.412Z,74.07
2023-01-19T08:12:55.263Z,76.52
2023-01-19T08:15:24.208Z,76.13
2023-01-19T08:17:59.050Z,71.46
2023-01-19T08:20:27.123Z,72.67
2023-01-19T08:23:01.623Z,74.47
2023-01-19T08:25:37.408Z,77.26
2023-01-19T08:28:06.493Z,77.17
2023-01-19T08:30:33.521Z,77.47
2023-01-19T08:33:08.380Z,78.20
2023-01-19T08:35:43.329Z,77.17
2023-01-19T08:38:11.148Z,75.98
2023-01-19T08:40:40.431Z,77.93
2023-01-19T08:43:09.963Z,76.28
2023-01-19T08:45:48.185Z,78.12
2023-01-19T08:48:17.295Z,77.38
2023-01-19T08:50:46.228Z,79.74
2023-01-19T08:53:13.633Z,77.71
2023-01-19T08:55:40.851Z,76.38
2023-01-19T08:58:08.956Z,77.01
2023-01-19T09:00:41.109Z,76.56
2023-01-19T09:03:11.475Z,75.89
2023-01-19T09:05:38.874Z,74.54
2023-01-19T09:08:09.411Z,76.75
2023-01-19T09:10:38.115Z,75.85
2023-01-19T09:13:08.353Z,75.81
2023-01-19T09:15:37.697Z,74.91
2023-01-19T09:18:07.259Z,75.04
2023-01-19T09:20:36.179Z,76.64
2023-01-19T09:23:03.267Z,77.11
2023-01-19T09:25:30.105Z,76.09
2023-01-19T09:27:56.928Z,76.97
2023-01-19T09:30:23.679Z,73.45
2023-01-19T09:32:50.609Z,71.71
2023-01-19T09:35:17.516Z,70.52
2023-01-19T09:37:47.926Z,69.31
2023-01-19T09:40:15.918Z,68.83
2023-01-19T09:42:47.349Z,66.31
2023-01-19T09:45:36.128Z,67.21
2023-01-19T09:48:13.374Z,68.20
2023-01-19T09:50:46.851Z,66.68
2023-01-19T09:54:01.483Z,66.11
2023-01-19T09:56:30.223Z,65.91
2023-01-19T09:58:58.501Z,63.15
2023-01-19T10:01:46.593Z,62.20
2023-01-19T10:04:25.508Z,64.86
2023-01-19T10:07:04.018Z,64.11
2023-01-19T10:09:47.627Z,64.08
2023-01-19T10:12:32.788Z,64.50
2023-01-19T10:15:04.213Z,63.08
2023-01-19T10:17:44.377Z,64.96
2023-01-19T10:20:18.062Z,65.09
2023-01-19T10:22:48.794Z,62.74
2023-01-19T10:25:20.509Z,62.63
2023-01-19T10:27:47.820Z,60.05
2023-01-19T10:30:24.524Z,60.99
2023-01-19T10:32:51.791Z,61.27
2023-01-19T10:35:27.260Z,61.50
2023-01-19T10:37:58.701Z,60.17
2023-01-19T10:40:47.798Z,58.66
2023-01-19T10:43:46.492Z,59.68
2023-01-19T10:46:37.348Z,60.08
2023-01-19T10:49:05.688Z,59.88
2023-01-19T10:51:32.757Z,59.63
2023-01-19T10:54:02.379Z,59.89
2023-01-19T10:56:35.280Z,58.55
2023-01-19T10:59:05.895Z,58.87
2023-01-19T11:01:36.983Z,58.48
2023-01-19T11:04:27.952Z,57.40
2023-01-19T11:07:14.016Z,55.64
2023-01-19T11:09:41.018Z,56.96
2023-01-19T11:12:16.846Z,56.67
2023-01-19T11:14:43.781Z,56.56
2023-01-19T11:17:27.919Z,56.50
2023-01-19T11:20:03.023Z,55.70
2023-01-19T11:22:33.974Z,56.27
2023-01-19T11:25:03.077Z,56.44
2023-01-19T11:27:32.077Z,56.13
2023-01-19T11:30:16.983Z,55.66
2023-01-19T11:32:43.798Z,56.74
2023-01-19T11:35:32.517Z,57.92
2023-01-19T11:38:19.570Z,58.10
2023-01-19T11:40:53.292Z,58.64
2023-01-19T11:43:23.310Z,59.73
2023-01-19T11:45:50.638Z,60.06
2023-01-19T11:48:29.247Z,59.91
2023-01-19T11:51:00.546Z,61.45
2023-01-19T11:53:30.823Z,61.46
2023-01-19T11:56:06.805Z,61.38
2023-01-19T11:58:39.178Z,60.55
2023-01-19T12:01:31.436Z,61.57
2023-01-19T12:03:58.168Z,62.85
2023-01-19T12:06:34.241Z,64.72
2023-01-19T12:09:10.566Z,64.98
2023-01-19T12:12:08.935Z,66.00
2023-01-19T12:14:43.768Z,65.83
2023-01-19T12:17:24.959Z,64.56
2023-01-19T12:20:28.155Z,64.27
2023-01-19T12:23:17.454Z,62.66
2023-01-19T12:25:54.950Z,61.90
2023-01-19T12:28:31.766Z,61.59
2023-01-19T12:31:01.137Z,61.05
2023-01-19T12:33:38.502Z,60.50
2023-01-19T12:36:35.607Z,58.38
2023-01-19T12:39:04.459Z,57.83
2023-01-19T12:41:38.932Z,53.83
2023-01-19T12:44:12.001Z,53.06
2023-01-19T12:46:43.512Z,51.05
2023-01-19T12:49:16.295Z,51.17
2023-01-19T12:51:43.774Z,54.44
2023-01-19T12:54:23.490Z,53.04
2023-01-19T12:56:58.619Z,50.16
2023-01-19T12:59:27.444Z,49.49
2023-01-19T13:02:22.255Z,51.48
2023-01-19T13:05:32.507Z,51.80
2023-01-19T13:08:02.412Z,49.76
2023-01-19T13:11:03.057Z,53.75
2023-01-19T13:13:42.297Z,57.78
2023-01-19T13:16:18.290Z,57.13
2023-01-19T13:18:45.126Z,57.10
2023-01-19T13:21:12.623Z,57.73
2023-01-19T13:23:51.429Z,57.99
2023-01-19T13:26:21.966Z,57.28
2023-01-19T13:28:55.700Z,58.87
2023-01-19T13:31:24.431Z,58.59
2023-01-19T13:33:55.036Z,57.51
2023-01-19T13:36:38.480Z,58.29
2023-01-19T13:39:18.697Z,58.09
2023-01-19T13:41:47.316Z,58.31
2023-01-19T13:44:30.339Z,58.20
2023-01-19T13:46:59.400Z,57.52
2023-01-19T13:49:36.423Z,58.23
2023-01-19T13:52:06.283Z,59.73
2023-01-19T13:54:33.085Z,58.88
2023-01-19T13:56:59.803Z,58.36
2023-01-19T13:59:26.594Z,57.66
2023-01-19T14:01:54.310Z,59.27
2023-01-19T14:04:30.791Z,59.00
2023-01-19T14:07:01.623Z,57.79
2023-01-19T14:09:28.940Z,57.11
2023-01-19T14:12:05.164Z,57.47
2023-01-19T14:14:32.693Z,56.84
2023-01-19T14:16:59.699Z,57.19
2023-01-19T14:19:26.552Z,57.56
2023-01-19T14:22:04.331Z,56.41
2023-01-19T14:24:33.289Z,56.27
2023-01-19T14:27:10.010Z,55.97
2023-01-19T14:29:40.555Z,54.78
2023-01-19T14:32:10.062Z,54.63
2023-01-19T14:34:42.851Z,55.51
2023-01-19T14:37:37.471Z,54.56
2023-01-19T14:40:17.517Z,52.39
2023-01-19T14:42:50.181Z,54.89
2023-01-19T14:45:21.371Z,54.73
2023-01-19T14:48:19.291Z,54.42
2023-01-19T14:51:02.112Z,55.29
2023-01-19T14:53:36.699Z,54.10
2023-01-19T14:56:05.980Z,54.29
2023-01-19T14:58:34.917Z,54.73
2023-01-19T15:01:02.846Z,56.70
2023-01-19T15:03:46.187Z,57.15
2023-01-19T15:06:20.125Z,57.98
2023-01-19T15:08:47.378Z,59.44
2023-01-19T15:11:31.908Z,59.84
2023-01-19T15:13:59.303Z,58.24
2023-01-19T15:16:29.143Z,57.43
2023-01-19T15:18:56.140Z,58.67
2023-01-19T15:21:23.816Z,59.90
2023-01-19T15:23:50.797Z,60.27
2023-01-19T15:26:23.054Z,59.57
2023-01-19T15:28:50.603Z,59.62
2023-01-19T15:31:20.727Z,60.10
2023-01-19T15:33:47.666Z,59.81
2023-01-19T15:36:18.319Z,61.50
2023-01-19T15:38:46.046Z,61.90
2023-01-19T15:41:20.776Z,60.22
2023-01-19T15:43:49.369Z,61.43
2023-01-19T15:46:18.784Z,61.87
2023-01-19T15:48:45.539Z,61.83
2023-01-19T15:51:17.103Z,62.98
2023-01-19T15:53:45.207Z,64.20
2023-01-19T15:56:19.671Z,65.44
2023-01-19T15:58:46.877Z,66.25
2023-01-19T16:01:16.201Z,67.23
2023-01-19T16:03:43.432Z,67.85
2023-01-19T16:06:11.174Z,68.05
2023-01-19T16:08:38.512Z,67.55
2023-01-19T16:11:15.320Z,67.79
2023-01-19T16:13:46.243Z,67.43
2023-01-19T16:16:20.985Z,67.97
2023-01-19T16:18:48.067Z,67.99
2023-01-19T16:21:14.893Z,67.75
2023-01-19T16:23:42.047Z,67.81
2023-01-19T16:26:22.993Z,68.51
2023-01-19T16:28:49.835Z,67.93
2023-01-19T16:31:16.738Z,68.49
2023-01-19T16:33:45.346Z,68.38
2023-01-19T16:36:42.618Z,68.62
2023-01-19T16:39:12.907Z,68.38
2023-01-19T16:41:40.242Z,68.44
2023-01-19T16:44:07.363Z,68.91
2023-01-19T16:46:36.853Z,68.04
2023-01-19T16:49:06.193Z,69.36
2023-01-19T16:51:33.675Z,71.26
2023-01-19T16:54:00.505Z,71.74
2023-01-19T16:56:27.391Z,72.03
2023-01-19T16:58:58.435Z,71.23
2023-01-19T17:01:27.386Z,70.80
2023-01-19T17:03:55.485Z,72.02
2023-01-19T17:06:23.614Z,70.87
2023-01-19T17:08:52.031Z,71.20
2023-01-19T17:11:30.634Z,71.80
2023-01-19T17:14:06.200Z,72.11
2023-01-19T17:16:34.283Z,72.16
2023-01-19T17:19:02.982Z,72.03
2023-01-19T17:21:29.802Z,72.12
2023-01-19T17:23:57.959Z,72.47
2023-01-19T17:26:25.973Z,73.03
2023-01-19T17:28:52.719Z,73.24
2023-01-19T17:31:22.024Z,73.62
2023-01-19T17:33:50.527Z,73.29
2023-01-19T17:36:22.874Z,73.33
2023-01-19T17:38:50.292Z,72.15
2023-01-19T17:41:19.576Z,71.96
2023-01-19T17:43:47.325Z,72.36
2023-01-19T17:46:14.144Z,72.97
2023-01-19T17:48:41.076Z,72.63
2023-01-19T17:51:11.373Z,73.88
2023-01-19T17:53:39.978Z,74.10
2023-01-19T17:56:12.364Z,74.13
2023-01-19T17:58:39.822Z,74.13
2023-01-19T18:01:22.113Z,75.61
2023-01-19T18:03:49.117Z,76.17
2023-01-19T18:06:16.719Z,76.50
2023-01-19T18:08:46.280Z,75.10
2023-01-19T18:11:14.898Z,75.31
2023-01-19T18:13:46.128Z,75.68
2023-01-19T18:16:15.943Z,74.57
2023-01-19T18:18:44.260Z,74.10
2023-01-19T18:21:14.300Z,74.01
2023-01-19T18:23:46.012Z,74.62
2023-01-19T18:26:16.201Z,75.07
2023-01-19T18:28:43.098Z,73.75
2023-01-19T18:31:12.128Z,73.75
2023-01-19T18:33:39.147Z,74.15
2023-01-19T18:36:06.472Z,75.04
2023-01-19T18:38:33.672Z,75.18
2023-01-19T18:41:10.257Z,75.74
2023-01-19T18:43:37.932Z,76.20
2023-01-19T18:46:04.982Z,77.50
2023-01-19T18:48:31.965Z,78.09
2023-01-19T18:51:03.339Z,78.12
2023-01-19T18:53:32.245Z,77.87
2023-01-19T18:56:01.924Z,77.92
2023-01-19T18:58:30.050Z,77.34
2023-01-19T19:00:57.421Z,77.29
2023-01-19T19:03:24.414Z,77.33
2023-01-19T19:05:53.845Z,76.61
2023-01-19T19:08:20.917Z,76.30
2023-01-19T19:10:47.904Z,75.46
2023-01-19T19:13:16.799Z,77.09
2023-01-19T19:15:44.470Z,77.33
2023-01-19T19:18:13.964Z,77.61
2023-01-19T19:20:43.251Z,77.36
2023-01-19T19:23:13.011Z,76.84
2023-01-19T19:25:39.891Z,76.13
2023-01-19T19:28:07.083Z,76.08
2023-01-19T19:30:35.700Z,75.67
2023-01-19T19:33:02.604Z,76.09
2023-01-19T19:35:29.447Z,76.86
2023-01-19T19:37:57.827Z,77.57
2023-01-19T19:40:26.631Z,77.25
2023-01-19T19:42:53.591Z,77.25
2023-01-19T19:45:22.285Z,76.90
2023-01-19T19:48:00.704Z,77.28
2023-01-19T19:50:28.091Z,78.90
2023-01-19T19:52:54.914Z,79.08
2023-01-19T19:55:21.821Z,79.31
2023-01-19T19:57:48.673Z,79.06
2023-01-19T20:00:16.216Z,78.22
2023-01-19T20:02:43.040Z,78.10
2023-01-19T20:05:10.016Z,78.40
2023-01-19T20:07:39.133Z,78.46
2023-01-19T20:10:06.423Z,77.80
2023-01-19T20:12:33.531Z,77.95
2023-01-19T20:15:00.440Z,79.49
2023-01-19T20:17:27.285Z,79.38
2023-01-19T20:19:54.223Z,79.87
2023-01-19T20:22:21.106Z,79.77
2023-01-19T20:24:48.157Z,79.47
2023-01-19T20:27:15.396Z,79.16
2023-01-19T20:29:43.204Z,78.69
2023-01-19T20:32:32.810Z,78.91
2023-01-19T20:35:00.259Z,78.16
2023-01-19T20:37:27.369Z,78.31
2023-01-19T20:39:54.499Z,78.85
2023-01-19T20:42:21.453Z,79.24
2023-01-19T20:44:49.777Z,79.41
2023-01-19T20:47:16.837Z,79.01
2023-01-19T20:49:44.205Z,78.43
2023-01-19T20:52:11.249Z,77.82
2023-01-19T20:54:39.936Z,77.68
2023-01-19T20:57:06.824Z,78.13
2023-01-19T20:59:36.952Z,79.04
2023-01-19T21:02:06.459Z,79.71
2023-01-19T21:04:33.650Z,78.70
2023-01-19T21:07:00.485Z,77.94
2023-01-19T21:09:27.258Z,77.95
2023-01-19T21:11:55.917Z,78.00
2023-01-19T21:14:24.392Z,77.74
2023-01-19T21:16:51.419Z,78.24
2023-01-19T21:19:18.447Z,77.87
2023-01-19T21:21:45.306Z,77.54
2023-01-19T21:24:12.162Z,77.74
2023-01-19T21:26:39.262Z,77.55
2023-01-19T21:29:06.056Z,77.84
2023-01-19T21:31:32.938Z,78.51
2023-01-19T21:33:59.875Z,78.87
2023-01-19T21:36:27.006Z,78.14
2023-01-19T21:39:00.375Z,78.67
2023-01-19T21:41:28.431Z,78.41
2023-01-19T21:43:55.319Z,77.80
2023-01-19T21:46:29.634Z,77.29
2023-01-19T21:49:01.780Z,76.30
2023-01-19T21:51:30.305Z,78.01
2023-01-19T21:53:59.820Z,79.55
2023-01-19T21:56:44.902Z,80.13
2023-01-19T21:59:16.068Z,79.75
2023-01-19T22:01:44.969Z,79.28
2023-01-19T22:04:12.595Z,78.55
2023-01-19T22:06:39.753Z,77.77
2023-01-19T22:09:07.527Z,76.95
2023-01-19T22:11:34.449Z,77.29
2023-01-19T22:14:01.317Z,77.03
2023-01-19T22:16:29.572Z,76.73
2023-01-19T22:18:59.545Z,76.51
2023-01-19T22:21:30.432Z,76.00
2023-01-19T22:23:59.298Z,76.10
2023-01-19T22:26:27.767Z,76.37
2023-01-19T22:28:56.606Z,76.55
2023-01-19T22:31:25.284Z,76.77
2023-01-19T22:33:53.138Z,76.68
2023-01-19T22:36:30.548Z,76.85
2023-01-19T22:38:59.721Z,76.61
2023-01-19T22:41:42.022Z,76.61
2023-01-19T22:44:13.122Z,75.96
2023-01-19T22:46:40.082Z,75.56
2023-01-19T22:49:08.273Z,75.35
2023-01-19T22:51:35.918Z,75.53
2023-01-19T22:54:03.881Z,74.76
2023-01-19T22:56:32.758Z,74.89
2023-01-19T22:59:00.302Z,74.46
2023-01-19T23:01:31.541Z,75.15
2023-01-19T23:03:58.211Z,75.43
2023-01-19T23:06:30.629Z,74.58
2023-01-19T23:09:00.087Z,75.57
2023-01-19T23:11:29.882Z,75.67
2023-01-19T23:13:58.156Z,75.42
2023-01-19T23:16:25.148Z,75.91
2023-01-19T23:18:56.911Z,76.56
2023-01-19T23:21:26.426Z,77.43
2023-01-19T23:23:56.653Z,78.12
2023-01-19T23:26:24.265Z,78.67
2023-01-19T23:28:56.533Z,78.22
2023-01-19T23:31:23.536Z,78.48
2023-01-19T23:33:52.100Z,77.98
2023-01-19T23:36:20.451Z,78.07
2023-01-19T23:38:55.539Z,78.14
2023-01-19T23:41:23.610Z,79.35
2023-01-19T23:43:50.794Z,79.22
2023-01-19T23:46:19.106Z,79.27
2023-01-19T23:48:46.827Z,79.30
2023-01-19T23:51:16.603Z,79.08
2023-01-19T23:53:43.620Z,78.96
2023-01-19T23:56:33.544Z,78.74
2023-01-19T23:59:14.773Z,79.09
